Terminal Aerodrome Forecast
Issued by NWS

Home | Current Version | Previous Version | Text Only | Print | Product List | Glossary On
Versions: 1 2 3 4 5 6 7 8 9 10 11 12
000
FTUS45 KGGW 301700
TAFSDY
TAF
KSDY 301734Z 3018/3118 05006KT P6SM FEW060
     FM310200 VRB04KT P6SM VCSH SCT080 BKN100
     FM310600 00000KT P6SM FEW120 SCT250
     FM311400 14006KT P6SM SKC
      AMD LTD TO CLD VIS AND WIND=

USA.gov is the U.S. government's official web portal to all federal, state and local government web resources and services.